createdAt,value
2018-12-31T00:00:19.287Z,21.10
2018-12-31T00:01:24.431Z,26.37
2018-12-31T00:02:28.155Z,22.87
2018-12-31T00:03:31.595Z,27.52
2018-12-31T00:04:35.030Z,25.77
2018-12-31T00:05:38.455Z,22.50
2018-12-31T00:06:41.958Z,19.95
2018-12-31T00:07:45.410Z,25.25
2018-12-31T00:08:48.842Z,27.42
2018-12-31T00:09:52.280Z,22.93
2018-12-31T00:10:55.704Z,19.15
2018-12-31T00:11:59.133Z,23.95
2018-12-31T00:13:02.574Z,21.23
2018-12-31T00:14:06.012Z,22.48
2018-12-31T00:15:09.448Z,20.27
2018-12-31T00:16:13.030Z,26.37
2018-12-31T00:17:16.458Z,20.75
2018-12-31T00:18:19.907Z,20.85
2018-12-31T00:19:23.368Z,19.40
2018-12-31T00:20:27.335Z,14.93
2018-12-31T00:21:30.838Z,20.43
2018-12-31T00:22:34.271Z,25.50
2018-12-31T00:23:37.797Z,20.15
2018-12-31T00:24:41.279Z,19.20
2018-12-31T00:25:44.723Z,21.55
2018-12-31T00:26:48.234Z,23.02
2018-12-31T00:27:51.677Z,24.30
2018-12-31T00:28:55.137Z,22.73
2018-12-31T00:29:58.590Z,26.30
2018-12-31T00:31:02.036Z,18.10
2018-12-31T00:32:05.535Z,17.67
2018-12-31T00:33:08.963Z,23.35
2018-12-31T00:34:12.482Z,20.37
2018-12-31T00:35:15.910Z,19.85
2018-12-31T00:36:19.346Z,20.12
2018-12-31T00:37:22.770Z,18.65
2018-12-31T00:38:26.199Z,18.00
2018-12-31T00:39:29.656Z,26.27
2018-12-31T00:40:33.135Z,27.75
2018-12-31T00:41:36.575Z,31.42
2018-12-31T00:42:40.013Z,25.90
2018-12-31T00:43:43.446Z,22.95
2018-12-31T00:44:46.898Z,18.27
2018-12-31T00:45:50.325Z,26.42
2018-12-31T00:46:53.759Z,22.05
2018-12-31T00:47:57.198Z,18.67
2018-12-31T00:49:00.630Z,27.02
2018-12-31T00:50:04.229Z,23.15
2018-12-31T00:51:07.703Z,22.55
2018-12-31T00:52:11.167Z,16.97
2018-12-31T00:53:14.607Z,21.35
2018-12-31T00:54:18.059Z,19.00
2018-12-31T00:55:21.541Z,19.50
2018-12-31T00:56:25.004Z,24.72
2018-12-31T00:57:28.444Z,20.45
2018-12-31T00:58:31.874Z,22.40
2018-12-31T00:59:35.317Z,27.35
2018-12-31T01:00:38.783Z,21.50
2018-12-31T01:01:42.233Z,21.37
2018-12-31T01:02:45.678Z,24.25
2018-12-31T01:03:49.129Z,22.52
2018-12-31T01:04:52.592Z,24.65
2018-12-31T01:05:56.038Z,19.23
2018-12-31T01:06:59.559Z,27.45
2018-12-31T01:08:03.010Z,25.80
2018-12-31T01:09:06.706Z,22.25
2018-12-31T01:10:10.205Z,21.73
2018-12-31T01:11:13.660Z,21.45
2018-12-31T01:12:17.160Z,18.98
2018-12-31T01:13:20.594Z,20.40
2018-12-31T01:14:24.026Z,30.37
2018-12-31T01:15:27.543Z,22.07
2018-12-31T01:16:31.003Z,24.27
2018-12-31T01:17:34.543Z,22.85
2018-12-31T01:18:37.976Z,19.52
2018-12-31T01:19:41.406Z,23.18
2018-12-31T01:20:44.916Z,34.15
2018-12-31T01:21:48.458Z,23.25
2018-12-31T01:22:51.890Z,23.18
2018-12-31T01:23:55.344Z,20.05
2018-12-31T01:24:58.935Z,25.12
2018-12-31T01:26:02.382Z,22.35
2018-12-31T01:27:05.856Z,15.88
2018-12-31T01:28:09.420Z,28.00
2018-12-31T01:29:12.844Z,22.52
2018-12-31T01:30:16.346Z,28.50
2018-12-31T01:31:19.788Z,24.72
2018-12-31T01:32:23.307Z,21.97
2018-12-31T01:33:26.765Z,23.98
2018-12-31T01:34:30.199Z,19.48
2018-12-31T01:35:33.629Z,24.18
2018-12-31T01:36:37.071Z,18.05
2018-12-31T01:37:40.528Z,20.80
2018-12-31T01:38:43.989Z,20.25
2018-12-31T01:39:47.434Z,17.70
2018-12-31T01:40:50.934Z,20.00
2018-12-31T01:41:54.385Z,20.70
2018-12-31T01:42:58.050Z,23.70
2018-12-31T01:44:01.593Z,25.37
2018-12-31T01:45:05.566Z,16.57
2018-12-31T01:46:08.999Z,21.65
2018-12-31T01:47:12.529Z,21.82
2018-12-31T01:48:16.016Z,19.42
2018-12-31T01:49:19.471Z,27.02
2018-12-31T01:50:22.977Z,17.75
2018-12-31T01:51:26.470Z,20.90
2018-12-31T01:52:29.986Z,17.27
2018-12-31T01:53:33.437Z,21.93
2018-12-31T01:54:36.940Z,18.48
2018-12-31T01:55:40.390Z,15.72
2018-12-31T01:56:43.966Z,20.92
2018-12-31T01:57:47.462Z,20.72
2018-12-31T01:58:50.923Z,19.48
2018-12-31T01:59:54.379Z,25.30
2018-12-31T02:00:58.018Z,23.62
2018-12-31T02:02:01.457Z,23.00
2018-12-31T02:03:06.257Z,21.65
2018-12-31T02:04:09.709Z,17.75
2018-12-31T02:05:13.159Z,18.85
2018-12-31T02:06:16.585Z,21.25
2018-12-31T02:07:20.039Z,23.25
2018-12-31T02:08:23.471Z,18.82
2018-12-31T02:09:27.003Z,18.67
2018-12-31T02:10:30.454Z,23.32
2018-12-31T02:11:33.954Z,23.20
2018-12-31T02:12:37.533Z,15.85
2018-12-31T02:13:41.070Z,16.95
2018-12-31T02:14:44.508Z,19.57
2018-12-31T02:15:47.994Z,27.55
2018-12-31T02:16:51.431Z,19.12
2018-12-31T02:17:54.871Z,15.70
2018-12-31T02:18:58.407Z,18.00
2018-12-31T02:20:01.841Z,18.27
2018-12-31T02:21:05.401Z,20.32
2018-12-31T02:22:09.038Z,16.77
2018-12-31T02:23:12.474Z,18.05
2018-12-31T02:24:16.018Z,17.52
2018-12-31T02:25:19.557Z,17.75
2018-12-31T02:26:23.098Z,17.50
2018-12-31T02:27:26.645Z,19.32
2018-12-31T02:28:30.183Z,14.65
2018-12-31T02:29:33.830Z,14.60
2018-12-31T02:30:37.365Z,13.88
2018-12-31T02:31:40.974Z,11.55
2018-12-31T02:32:44.440Z,16.82
2018-12-31T02:33:47.897Z,15.63
2018-12-31T02:34:51.389Z,13.00
2018-12-31T02:35:54.918Z,15.95
2018-12-31T02:36:58.453Z,19.15
2018-12-31T02:38:01.943Z,14.78
2018-12-31T02:39:07.083Z,16.23
2018-12-31T02:40:10.598Z,19.77
2018-12-31T02:41:14.178Z,17.27
2018-12-31T02:42:17.701Z,16.12
2018-12-31T02:43:21.152Z,22.15
2018-12-31T02:44:24.608Z,16.12
2018-12-31T02:45:28.116Z,16.77
2018-12-31T02:46:31.702Z,17.12
2018-12-31T02:47:35.404Z,15.10
2018-12-31T02:48:39.012Z,20.72
2018-12-31T02:49:42.462Z,17.57
2018-12-31T02:50:45.915Z,12.63
2018-12-31T02:51:49.468Z,18.23
2018-12-31T02:52:53.008Z,14.60
2018-12-31T02:53:56.528Z,16.07
2018-12-31T02:55:00.246Z,12.70
2018-12-31T02:56:03.673Z,18.50
2018-12-31T02:57:07.120Z,10.60
2018-12-31T02:58:10.691Z,13.58
2018-12-31T02:59:14.128Z,17.80
2018-12-31T03:00:17.691Z,13.48
2018-12-31T03:01:21.115Z,11.33
2018-12-31T03:02:24.733Z,14.50
2018-12-31T03:03:28.275Z,16.10
2018-12-31T03:04:31.807Z,15.83
2018-12-31T03:05:35.313Z,12.05
2018-12-31T03:06:38.812Z,11.90
2018-12-31T03:07:42.277Z,14.60
2018-12-31T03:08:45.726Z,13.30
2018-12-31T03:09:49.330Z,15.45
2018-12-31T03:10:52.963Z,14.87
2018-12-31T03:11:56.411Z,16.00
2018-12-31T03:12:59.959Z,14.35
2018-12-31T03:14:03.421Z,11.68
2018-12-31T03:15:07.022Z,16.60
2018-12-31T03:16:10.431Z,15.72
2018-12-31T03:17:13.928Z,15.83
2018-12-31T03:18:17.467Z,15.55
2018-12-31T03:19:20.875Z,19.35
2018-12-31T03:20:24.313Z,13.95
2018-12-31T03:21:27.844Z,13.38
2018-12-31T03:22:31.414Z,15.65
2018-12-31T03:23:34.982Z,14.70
2018-12-31T03:24:38.413Z,17.20
2018-12-31T03:25:42.004Z,12.68
2018-12-31T03:26:45.434Z,14.90
2018-12-31T03:27:48.876Z,13.28
2018-12-31T03:28:52.413Z,13.88
2018-12-31T03:29:55.959Z,17.42
2018-12-31T03:30:59.460Z,15.58
2018-12-31T03:32:02.971Z,16.55
2018-12-31T03:33:08.208Z,14.58
2018-12-31T03:34:11.649Z,14.50
2018-12-31T03:35:15.182Z,15.30
2018-12-31T03:36:18.687Z,12.98
2018-12-31T03:37:22.257Z,15.43
2018-12-31T03:38:25.713Z,13.18
2018-12-31T03:39:29.273Z,16.90
2018-12-31T03:40:32.793Z,15.35
2018-12-31T03:41:36.330Z,16.00
2018-12-31T03:42:39.825Z,12.05
2018-12-31T03:43:43.412Z,18.12
2018-12-31T03:44:46.951Z,15.98
2018-12-31T03:45:50.434Z,14.98
2018-12-31T03:46:53.873Z,12.90
2018-12-31T03:47:57.307Z,13.40
2018-12-31T03:49:00.745Z,14.85
2018-12-31T03:50:05.730Z,13.95
2018-12-31T03:51:09.314Z,16.17
2018-12-31T03:52:12.771Z,12.18
2018-12-31T03:53:16.249Z,11.25
2018-12-31T03:54:19.797Z,15.20
2018-12-31T03:55:23.338Z,16.12
2018-12-31T03:56:27.053Z,11.05
2018-12-31T03:57:30.550Z,15.45
2018-12-31T03:58:34.120Z,12.28
2018-12-31T03:59:37.630Z,12.50
2018-12-31T04:00:41.084Z,15.80
2018-12-31T04:01:44.570Z,21.45
2018-12-31T04:02:48.026Z,13.38
2018-12-31T04:03:51.476Z,12.80
2018-12-31T04:04:54.969Z,15.03
2018-12-31T04:05:58.585Z,12.90
2018-12-31T04:07:02.013Z,11.05
2018-12-31T04:08:05.520Z,13.98
2018-12-31T04:09:08.948Z,11.90
2018-12-31T04:10:12.503Z,14.85
2018-12-31T04:11:15.945Z,14.20
2018-12-31T04:12:19.413Z,16.48
2018-12-31T04:13:22.842Z,12.95
2018-12-31T04:14:26.270Z,11.78
2018-12-31T04:15:29.850Z,13.70
2018-12-31T04:16:33.303Z,11.40
2018-12-31T04:17:36.734Z,10.60
2018-12-31T04:18:40.197Z,14.28
2018-12-31T04:19:43.628Z,11.60
2018-12-31T04:20:47.061Z,14.50
2018-12-31T04:21:50.516Z,12.37
2018-12-31T04:22:53.954Z,10.82
2018-12-31T04:23:57.384Z,12.82
2018-12-31T04:25:00.825Z,9.93
2018-12-31T04:26:04.590Z,14.30
2018-12-31T04:27:08.046Z,10.32
2018-12-31T04:28:11.503Z,7.62
2018-12-31T04:29:14.933Z,9.73
2018-12-31T04:30:18.351Z,6.00
2018-12-31T04:31:21.793Z,7.47
2018-12-31T04:32:25.317Z,9.33
2018-12-31T04:33:28.773Z,8.13
2018-12-31T04:34:32.198Z,10.43
2018-12-31T04:35:35.692Z,9.95
2018-12-31T04:36:39.115Z,9.98
2018-12-31T04:37:42.560Z,11.97
2018-12-31T04:38:46.009Z,11.63
2018-12-31T04:39:49.443Z,10.93
2018-12-31T04:40:52.866Z,7.65
2018-12-31T04:41:56.287Z,6.25
2018-12-31T04:42:59.723Z,7.15
2018-12-31T04:44:03.168Z,6.08
2018-12-31T04:45:06.737Z,7.25
2018-12-31T04:46:10.162Z,6.28
2018-12-31T04:47:13.587Z,8.80
2018-12-31T04:48:17.034Z,7.40
2018-12-31T04:49:20.474Z,8.05
2018-12-31T04:50:23.902Z,5.15
2018-12-31T04:51:27.317Z,6.17
2018-12-31T04:52:30.747Z,8.03
2018-12-31T04:53:34.200Z,5.72
2018-12-31T04:54:37.620Z,8.40
2018-12-31T04:55:44.584Z,7.12
2018-12-31T04:56:46.201Z,7.25
2018-12-31T04:57:49.628Z,6.62
2018-12-31T04:58:53.078Z,5.72
2018-12-31T04:59:56.534Z,7.55
2018-12-31T05:01:00.022Z,6.15
2018-12-31T05:02:03.521Z,5.33
2018-12-31T05:03:06.939Z,9.70
2018-12-31T05:04:10.386Z,5.58
2018-12-31T05:05:13.953Z,5.42
2018-12-31T05:06:17.365Z,5.17
2018-12-31T05:07:20.800Z,5.50
2018-12-31T05:08:24.211Z,7.83
2018-12-31T05:09:27.657Z,7.22
2018-12-31T05:10:31.086Z,7.20
2018-12-31T05:11:34.577Z,6.53
2018-12-31T05:12:38.077Z,6.20
2018-12-31T05:13:41.503Z,7.47
2018-12-31T05:14:44.942Z,6.85
2018-12-31T05:15:48.384Z,7.10
2018-12-31T05:16:51.824Z,4.95
2018-12-31T05:17:55.250Z,6.37
2018-12-31T05:18:58.670Z,6.17
2018-12-31T05:20:02.115Z,5.72
2018-12-31T05:21:05.577Z,5.58
2018-12-31T05:22:08.989Z,5.22
2018-12-31T05:23:12.411Z,5.12
2018-12-31T05:24:15.835Z,4.97
2018-12-31T05:25:19.279Z,5.00
2018-12-31T05:26:22.700Z,7.00
2018-12-31T05:27:26.137Z,4.30
2018-12-31T05:28:29.555Z,6.55
2018-12-31T05:29:32.984Z,3.95
2018-12-31T05:30:36.433Z,4.85
2018-12-31T05:31:39.861Z,5.15
2018-12-31T05:32:43.283Z,5.67
2018-12-31T05:33:46.701Z,4.50
2018-12-31T05:34:50.122Z,4.90
2018-12-31T05:35:53.581Z,4.20
2018-12-31T05:36:57.024Z,6.90
2018-12-31T05:38:00.454Z,4.92
2018-12-31T05:39:05.250Z,4.53
2018-12-31T05:40:08.674Z,5.83
2018-12-31T05:41:12.118Z,4.05
2018-12-31T05:42:15.548Z,4.12
2018-12-31T05:43:18.981Z,4.35
2018-12-31T05:44:22.415Z,3.70
2018-12-31T05:45:25.840Z,4.55
2018-12-31T05:46:29.288Z,3.92
2018-12-31T05:47:32.744Z,4.75
2018-12-31T05:48:36.168Z,4.35
2018-12-31T05:49:39.593Z,3.80
2018-12-31T05:50:43.071Z,4.10
2018-12-31T05:51:46.584Z,5.87
2018-12-31T05:52:50.083Z,3.70
2018-12-31T05:53:53.505Z,3.40
2018-12-31T05:54:56.938Z,3.42
2018-12-31T05:56:00.361Z,3.80
2018-12-31T05:57:03.871Z,3.92
2018-12-31T05:58:07.382Z,3.67
2018-12-31T05:59:10.802Z,5.90
2018-12-31T06:00:14.298Z,3.90
2018-12-31T06:01:17.716Z,5.50
2018-12-31T06:02:21.153Z,4.72
2018-12-31T06:03:24.577Z,4.87
2018-12-31T06:04:28.004Z,4.65
2018-12-31T06:05:31.447Z,4.10
2018-12-31T06:06:34.875Z,5.10
2018-12-31T06:07:38.320Z,5.40
2018-12-31T06:08:41.759Z,3.25
2018-12-31T06:09:45.194Z,3.52
2018-12-31T06:10:48.607Z,3.72
2018-12-31T06:11:52.040Z,5.25
2018-12-31T06:12:55.478Z,3.00
2018-12-31T06:13:58.915Z,2.90
2018-12-31T06:15:02.394Z,3.05
2018-12-31T06:16:05.782Z,3.33
2018-12-31T06:17:09.206Z,3.40
2018-12-31T06:18:12.692Z,3.37
2018-12-31T06:19:16.145Z,4.00
2018-12-31T06:20:19.566Z,3.25
2018-12-31T06:21:22.995Z,3.47
2018-12-31T06:22:26.485Z,9.40
2018-12-31T06:23:29.927Z,6.12
2018-12-31T06:24:33.439Z,5.22
2018-12-31T06:25:36.943Z,5.42
2018-12-31T06:26:40.372Z,3.62
2018-12-31T06:27:43.810Z,4.40
2018-12-31T06:28:47.241Z,3.15
2018-12-31T06:29:50.665Z,2.62
2018-12-31T06:30:54.088Z,3.00
2018-12-31T06:31:57.512Z,2.10
2018-12-31T06:33:00.930Z,3.37
2018-12-31T06:34:04.435Z,2.35
2018-12-31T06:35:07.929Z,2.62
2018-12-31T06:36:11.347Z,3.12
2018-12-31T06:37:14.774Z,3.17
2018-12-31T06:38:18.203Z,3.27
2018-12-31T06:39:21.653Z,2.22
2018-12-31T06:40:25.079Z,3.42
2018-12-31T06:41:28.500Z,3.05
2018-12-31T06:42:31.925Z,2.80
2018-12-31T06:43:35.344Z,3.92
2018-12-31T06:44:38.788Z,3.35
2018-12-31T06:45:42.208Z,3.08
2018-12-31T06:46:45.632Z,4.37
2018-12-31T06:47:49.060Z,5.80
2018-12-31T06:48:52.481Z,3.65
2018-12-31T06:49:55.934Z,6.15
2018-12-31T06:50:59.353Z,3.72
2018-12-31T06:52:02.849Z,3.08
2018-12-31T06:53:06.417Z,5.25
2018-12-31T06:54:09.850Z,7.80
2018-12-31T06:55:13.366Z,9.75
2018-12-31T06:56:16.784Z,4.85
2018-12-31T06:57:20.208Z,7.37
2018-12-31T06:58:25.396Z,4.50
2018-12-31T06:59:28.939Z,3.10
2018-12-31T07:00:32.404Z,2.80
2018-12-31T07:01:35.848Z,4.08
2018-12-31T07:02:39.346Z,4.00
2018-12-31T07:03:42.780Z,4.37
2018-12-31T07:04:46.204Z,4.83
2018-12-31T07:05:49.650Z,3.05
2018-12-31T07:06:53.090Z,3.35
2018-12-31T07:07:56.545Z,2.98
2018-12-31T07:08:59.986Z,2.40
2018-12-31T07:10:03.887Z,3.00
2018-12-31T07:11:07.338Z,2.72
2018-12-31T07:12:10.796Z,3.58
2018-12-31T07:13:14.214Z,2.10
2018-12-31T07:14:17.638Z,3.10
2018-12-31T07:15:21.063Z,2.10
2018-12-31T07:16:24.518Z,2.65
2018-12-31T07:17:27.964Z,2.60
2018-12-31T07:18:31.393Z,2.52
2018-12-31T07:19:34.883Z,2.40
2018-12-31T07:20:38.391Z,1.95
2018-12-31T07:21:41.823Z,2.22
2018-12-31T07:22:45.251Z,2.62
2018-12-31T07:23:48.685Z,3.67
2018-12-31T07:24:52.176Z,5.10
2018-12-31T07:25:55.672Z,4.05
2018-12-31T07:26:59.177Z,2.98
2018-12-31T07:28:02.695Z,4.20
2018-12-31T07:29:06.109Z,2.12
2018-12-31T07:30:09.527Z,2.95
2018-12-31T07:31:12.953Z,2.75
2018-12-31T07:32:16.406Z,2.35
2018-12-31T07:33:19.859Z,2.80
2018-12-31T07:34:23.286Z,2.00
2018-12-31T07:35:26.725Z,2.55
2018-12-31T07:36:30.160Z,3.00
2018-12-31T07:37:33.596Z,1.80
2018-12-31T07:38:37.043Z,2.52
2018-12-31T07:39:40.471Z,2.30
2018-12-31T07:40:43.891Z,2.35
2018-12-31T07:41:47.313Z,4.15
2018-12-31T07:42:50.755Z,2.40
2018-12-31T07:43:54.223Z,2.62
2018-12-31T07:44:57.719Z,3.42
2018-12-31T07:46:01.217Z,4.90
2018-12-31T07:47:05.221Z,2.00
2018-12-31T07:48:08.733Z,2.30
2018-12-31T07:49:12.152Z,2.37
2018-12-31T07:50:15.585Z,3.10
2018-12-31T07:51:19.007Z,2.80
2018-12-31T07:52:22.429Z,2.10
2018-12-31T07:53:26.179Z,2.10
2018-12-31T07:54:29.617Z,2.42
2018-12-31T07:55:33.106Z,2.10
2018-12-31T07:56:36.532Z,2.65
2018-12-31T07:57:39.966Z,3.60
2018-12-31T07:58:43.412Z,1.92
2018-12-31T07:59:46.867Z,2.10
2018-12-31T08:00:50.432Z,2.35
2018-12-31T08:01:53.934Z,1.90
2018-12-31T08:02:57.360Z,2.70
2018-12-31T08:04:00.806Z,1.70
2018-12-31T08:05:04.786Z,2.02
2018-12-31T08:06:08.209Z,2.20
2018-12-31T08:07:11.631Z,2.20
2018-12-31T08:08:15.064Z,2.65
2018-12-31T08:09:18.607Z,2.15
2018-12-31T08:10:22.118Z,1.75
2018-12-31T08:11:25.619Z,1.90
2018-12-31T08:12:29.040Z,2.40
2018-12-31T08:13:32.463Z,2.00
2018-12-31T08:14:35.908Z,2.33
2018-12-31T08:15:39.364Z,3.60
2018-12-31T08:16:42.837Z,3.67
2018-12-31T08:17:46.347Z,4.80
2018-12-31T08:18:49.793Z,2.52
2018-12-31T08:19:53.244Z,8.10
2018-12-31T08:20:56.759Z,3.15
2018-12-31T08:22:00.181Z,2.65
2018-12-31T08:23:03.608Z,3.95
2018-12-31T08:24:07.053Z,2.30
2018-12-31T08:25:10.559Z,3.40
2018-12-31T08:26:14.007Z,3.37
2018-12-31T08:27:17.426Z,2.08
2018-12-31T08:28:20.862Z,2.12
2018-12-31T08:29:24.287Z,2.05
2018-12-31T08:30:27.795Z,2.22
2018-12-31T08:31:31.242Z,2.25
2018-12-31T08:32:34.690Z,2.17
2018-12-31T08:33:38.118Z,3.08
2018-12-31T08:34:41.577Z,2.87
2018-12-31T08:35:45.031Z,3.27
2018-12-31T08:36:48.451Z,3.10
2018-12-31T08:37:51.875Z,3.50
2018-12-31T08:38:55.298Z,5.42
2018-12-31T08:39:58.724Z,4.15
2018-12-31T08:41:02.172Z,2.70
2018-12-31T08:42:05.629Z,2.42
2018-12-31T08:43:09.051Z,3.15
2018-12-31T08:44:12.550Z,2.47
2018-12-31T08:45:15.981Z,2.25
2018-12-31T08:46:19.424Z,2.72
2018-12-31T08:47:22.869Z,2.42
2018-12-31T08:48:26.297Z,2.90
2018-12-31T08:49:29.722Z,2.22
2018-12-31T08:50:33.148Z,1.95
2018-12-31T08:51:36.590Z,2.22
2018-12-31T08:52:40.012Z,2.58
2018-12-31T08:53:43.453Z,5.17
2018-12-31T08:54:46.875Z,4.30
2018-12-31T08:55:50.310Z,2.92
2018-12-31T08:56:53.757Z,5.37
2018-12-31T08:57:57.203Z,3.67
2018-12-31T08:59:00.623Z,5.20
2018-12-31T09:00:06.165Z,3.83
2018-12-31T09:01:09.679Z,4.03
2018-12-31T09:02:13.132Z,2.90
2018-12-31T09:03:16.552Z,2.77
2018-12-31T09:04:19.979Z,3.95
2018-12-31T09:05:23.403Z,3.65
2018-12-31T09:06:26.910Z,2.55
2018-12-31T09:07:30.428Z,5.10
2018-12-31T09:08:34.846Z,2.62
2018-12-31T09:09:38.275Z,2.30
2018-12-31T09:10:41.708Z,4.47
2018-12-31T09:11:45.136Z,6.28
2018-12-31T09:12:48.589Z,3.08
2018-12-31T09:13:52.037Z,2.15
2018-12-31T09:14:55.548Z,1.92
2018-12-31T09:15:58.972Z,3.22
2018-12-31T09:17:02.396Z,2.30
2018-12-31T09:18:05.866Z,2.62
2018-12-31T09:19:09.285Z,3.30
2018-12-31T09:20:12.716Z,2.22
2018-12-31T09:21:16.153Z,1.82
2018-12-31T09:22:19.579Z,3.17
2018-12-31T09:23:23.024Z,2.65
2018-12-31T09:24:26.528Z,2.15
2018-12-31T09:25:29.955Z,1.87
2018-12-31T09:26:33.377Z,2.70
2018-12-31T09:27:36.804Z,3.17
2018-12-31T09:28:40.250Z,4.00
2018-12-31T09:29:43.815Z,4.70
2018-12-31T09:30:47.237Z,6.03
2018-12-31T09:31:50.671Z,6.75
2018-12-31T09:32:54.119Z,3.98
2018-12-31T09:33:57.564Z,2.77
2018-12-31T09:35:01.003Z,2.98
2018-12-31T09:36:04.430Z,2.98
2018-12-31T09:37:07.848Z,1.82
2018-12-31T09:38:11.287Z,1.95
2018-12-31T09:39:14.721Z,7.75
2018-12-31T09:40:18.162Z,2.20
2018-12-31T09:41:21.580Z,2.50
2018-12-31T09:42:25.009Z,3.70
2018-12-31T09:43:28.444Z,2.17
2018-12-31T09:44:31.963Z,2.72
2018-12-31T09:45:35.420Z,2.45
2018-12-31T09:46:38.846Z,2.05
2018-12-31T09:47:42.292Z,2.98
2018-12-31T09:48:45.711Z,2.00
2018-12-31T09:49:49.162Z,2.67
2018-12-31T09:50:52.610Z,1.85
2018-12-31T09:51:56.061Z,2.72
2018-12-31T09:52:59.464Z,1.80
2018-12-31T09:54:02.951Z,1.87
2018-12-31T09:55:06.531Z,2.42
2018-12-31T09:56:09.983Z,3.15
2018-12-31T09:57:13.408Z,6.35
2018-12-31T09:58:16.894Z,4.33
2018-12-31T09:59:20.318Z,2.25
2018-12-31T10:00:23.756Z,2.05
2018-12-31T10:01:27.196Z,2.27
2018-12-31T10:02:30.615Z,1.92
2018-12-31T10:03:34.038Z,2.52
2018-12-31T10:04:37.463Z,3.17
2018-12-31T10:05:40.983Z,2.80
2018-12-31T10:06:44.408Z,1.95
2018-12-31T10:07:47.829Z,2.37
2018-12-31T10:08:51.256Z,1.70
2018-12-31T10:09:54.745Z,1.80
2018-12-31T10:10:58.132Z,3.30
2018-12-31T10:12:01.579Z,3.75
2018-12-31T10:13:05.008Z,4.97
2018-12-31T10:14:08.443Z,2.80
2018-12-31T10:15:11.870Z,6.10
2018-12-31T10:16:15.346Z,5.20
2018-12-31T10:17:18.783Z,4.20
2018-12-31T10:18:22.213Z,2.30
2018-12-31T10:19:25.634Z,2.20
2018-12-31T10:20:29.064Z,2.20
2018-12-31T10:21:32.510Z,1.80
2018-12-31T10:22:35.938Z,2.90
2018-12-31T10:23:39.368Z,1.95
2018-12-31T10:24:42.814Z,2.50
2018-12-31T10:25:46.236Z,2.40
2018-12-31T10:26:49.681Z,1.98
2018-12-31T10:27:53.116Z,1.80
2018-12-31T10:28:56.620Z,2.47
2018-12-31T10:30:00.190Z,2.22
2018-12-31T10:31:03.623Z,12.80
2018-12-31T10:32:07.066Z,2.80
2018-12-31T10:33:10.530Z,2.25
2018-12-31T10:34:14.004Z,2.20
2018-12-31T10:35:17.496Z,4.10
2018-12-31T10:36:20.922Z,1.70
2018-12-31T10:37:24.366Z,2.08
2018-12-31T10:38:27.808Z,2.00
2018-12-31T10:39:31.233Z,3.08
2018-12-31T10:40:34.694Z,2.00
2018-12-31T10:41:38.084Z,2.25
2018-12-31T10:42:41.672Z,2.85
2018-12-31T10:43:45.125Z,3.15
2018-12-31T10:44:48.614Z,2.20
2018-12-31T10:45:52.115Z,4.50
2018-12-31T10:46:55.544Z,2.10
2018-12-31T10:47:58.988Z,2.15
2018-12-31T10:49:02.423Z,2.12
2018-12-31T10:50:05.912Z,1.67
2018-12-31T10:51:09.338Z,2.30
2018-12-31T10:52:12.762Z,2.45
2018-12-31T10:53:16.270Z,1.80
2018-12-31T10:54:19.719Z,1.75
2018-12-31T10:55:23.151Z,1.62
2018-12-31T10:56:26.574Z,2.20
2018-12-31T10:57:29.995Z,1.72
2018-12-31T10:58:33.428Z,2.52
2018-12-31T10:59:36.882Z,1.87
2018-12-31T11:00:40.329Z,2.05
2018-12-31T11:01:43.816Z,1.90
2018-12-31T11:02:47.328Z,1.30
2018-12-31T11:03:50.784Z,2.00
2018-12-31T11:04:54.235Z,1.98
2018-12-31T11:05:57.647Z,2.80
2018-12-31T11:07:01.069Z,2.05
2018-12-31T11:08:04.485Z,2.37
2018-12-31T11:09:07.938Z,2.05
2018-12-31T11:10:11.427Z,2.50
2018-12-31T11:11:14.863Z,1.67
2018-12-31T11:12:21.091Z,1.95
2018-12-31T11:13:24.526Z,2.02
2018-12-31T11:14:27.974Z,7.97
2018-12-31T11:15:31.406Z,2.00
2018-12-31T11:16:34.817Z,1.70
2018-12-31T11:17:38.286Z,2.05
2018-12-31T11:18:41.719Z,1.67
2018-12-31T11:19:45.172Z,2.08
2018-12-31T11:20:48.584Z,1.87
2018-12-31T11:21:52.034Z,2.55
2018-12-31T11:22:55.532Z,1.60
2018-12-31T11:23:58.982Z,1.70
2018-12-31T11:25:02.471Z,3.80
2018-12-31T11:26:05.907Z,1.30
2018-12-31T11:27:09.802Z,1.70
2018-12-31T11:28:13.217Z,1.60
2018-12-31T11:29:16.666Z,1.67
2018-12-31T11:30:20.130Z,1.95
2018-12-31T11:31:30.120Z,2.35
2018-12-31T11:32:28.751Z,2.08
2018-12-31T11:33:32.188Z,1.95
2018-12-31T11:34:35.709Z,1.70
2018-12-31T11:35:39.131Z,4.08
2018-12-31T11:36:42.557Z,1.82
2018-12-31T11:37:45.981Z,1.90
2018-12-31T11:38:49.423Z,1.85
2018-12-31T11:39:52.854Z,1.72
2018-12-31T11:40:56.356Z,1.50
2018-12-31T11:41:59.790Z,2.77
2018-12-31T11:43:03.278Z,2.67
2018-12-31T11:44:06.733Z,1.55
2018-12-31T11:45:10.158Z,2.45
2018-12-31T11:46:13.583Z,2.10
2018-12-31T11:47:17.073Z,4.60
2018-12-31T11:48:20.498Z,1.30
2018-12-31T11:49:23.950Z,1.60
2018-12-31T11:50:27.382Z,1.40
2018-12-31T11:51:30.800Z,2.47
2018-12-31T11:52:34.211Z,1.37
2018-12-31T11:53:37.636Z,1.75
2018-12-31T11:54:41.090Z,1.75
2018-12-31T11:55:44.522Z,1.45
2018-12-31T11:56:47.954Z,2.40
2018-12-31T11:57:51.388Z,1.82
2018-12-31T11:58:54.835Z,2.05
2018-12-31T11:59:58.270Z,2.22
2018-12-31T12:01:01.777Z,1.72
2018-12-31T12:02:05.196Z,3.75
2018-12-31T12:03:11.002Z,1.52
2018-12-31T12:04:13.806Z,2.95
2018-12-31T12:05:17.261Z,1.98
2018-12-31T12:06:20.794Z,1.95
2018-12-31T12:07:24.215Z,3.65
2018-12-31T12:08:27.640Z,2.90
2018-12-31T12:09:31.073Z,13.48
2018-12-31T12:10:34.545Z,10.30
2018-12-31T12:11:37.984Z,2.30
2018-12-31T12:12:41.414Z,3.50
2018-12-31T12:13:44.836Z,12.45
2018-12-31T12:14:48.260Z,3.02
2018-12-31T12:15:51.713Z,3.05
2018-12-31T12:16:55.165Z,2.00
2018-12-31T12:17:58.628Z,2.20
2018-12-31T12:19:02.006Z,2.15
2018-12-31T12:20:05.964Z,1.82
2018-12-31T12:21:09.429Z,2.50
2018-12-31T12:22:13.257Z,1.85
2018-12-31T12:23:16.664Z,1.65
2018-12-31T12:24:20.091Z,1.65
2018-12-31T12:25:23.513Z,1.47
2018-12-31T12:26:26.966Z,2.45
2018-12-31T12:27:30.399Z,1.50
2018-12-31T12:28:33.841Z,2.12
2018-12-31T12:29:37.276Z,2.10
2018-12-31T12:30:40.709Z,1.80
2018-12-31T12:31:44.152Z,1.80
2018-12-31T12:32:47.580Z,2.00
2018-12-31T12:33:51.088Z,2.35
2018-12-31T12:34:54.511Z,2.22
2018-12-31T12:35:57.931Z,3.00
2018-12-31T12:37:01.384Z,2.08
2018-12-31T12:38:04.951Z,2.35
2018-12-31T12:39:08.823Z,3.42
2018-12-31T12:40:12.248Z,2.77
2018-12-31T12:41:15.674Z,3.15
2018-12-31T12:42:19.118Z,2.47
2018-12-31T12:43:22.611Z,2.77
2018-12-31T12:44:26.036Z,2.58
2018-12-31T12:45:29.460Z,6.67
2018-12-31T12:46:32.900Z,2.17
2018-12-31T12:47:36.329Z,2.37
2018-12-31T12:48:39.753Z,2.47
2018-12-31T12:49:43.176Z,3.12
2018-12-31T12:50:46.699Z,2.20
2018-12-31T12:51:50.145Z,1.90
2018-12-31T12:52:53.567Z,2.40
2018-12-31T12:53:56.995Z,2.95
2018-12-31T12:55:00.431Z,5.40
2018-12-31T12:56:04.324Z,2.27
2018-12-31T12:57:07.764Z,2.50
2018-12-31T12:58:11.259Z,2.37
2018-12-31T12:59:14.760Z,2.30
2018-12-31T13:00:18.182Z,5.08
2018-12-31T13:01:21.608Z,2.83
2018-12-31T13:02:25.051Z,2.55
2018-12-31T13:03:28.487Z,2.15
2018-12-31T13:04:31.924Z,3.02
2018-12-31T13:05:35.419Z,3.17
2018-12-31T13:06:38.873Z,3.33
2018-12-31T13:07:42.290Z,3.60
2018-12-31T13:08:45.711Z,3.25
2018-12-31T13:09:49.204Z,5.50
2018-12-31T13:10:52.637Z,2.70
2018-12-31T13:11:56.079Z,2.92
2018-12-31T13:12:59.794Z,3.37
2018-12-31T13:14:03.499Z,11.78
2018-12-31T13:15:07.181Z,3.52
2018-12-31T13:16:10.595Z,2.45
2018-12-31T13:17:14.226Z,2.45
2018-12-31T13:18:17.710Z,2.60
2018-12-31T13:19:21.139Z,3.67
2018-12-31T13:20:24.577Z,5.65
2018-12-31T13:21:27.997Z,2.80
2018-12-31T13:22:31.445Z,2.77
2018-12-31T13:23:34.877Z,2.90
2018-12-31T13:24:38.309Z,5.25
2018-12-31T13:25:41.731Z,3.58
2018-12-31T13:26:45.188Z,3.30
2018-12-31T13:27:48.613Z,3.00
2018-12-31T13:28:52.041Z,4.42
2018-12-31T13:29:55.649Z,2.95
2018-12-31T13:30:59.452Z,2.92
2018-12-31T13:32:02.916Z,2.72
2018-12-31T13:33:06.317Z,2.90
2018-12-31T13:34:09.741Z,2.95
2018-12-31T13:35:13.180Z,3.00
2018-12-31T13:36:16.608Z,2.85
2018-12-31T13:37:20.126Z,8.83
2018-12-31T13:38:23.553Z,3.00
2018-12-31T13:39:26.987Z,2.60
2018-12-31T13:40:30.411Z,4.37
2018-12-31T13:41:33.856Z,3.02
2018-12-31T13:42:37.278Z,5.95
2018-12-31T13:43:40.709Z,4.35
2018-12-31T13:44:44.152Z,3.47
2018-12-31T13:45:47.583Z,3.47
2018-12-31T13:46:51.307Z,8.73
2018-12-31T13:47:54.900Z,3.33
2018-12-31T13:48:58.337Z,2.80
2018-12-31T13:50:01.787Z,4.60
2018-12-31T13:51:05.208Z,3.30
2018-12-31T13:52:08.718Z,3.40
2018-12-31T13:53:13.158Z,5.92
2018-12-31T13:54:16.595Z,3.37
2018-12-31T13:55:20.087Z,3.30